sensor_id;sensor_type;location;lat;lon;timestamp;P1;durP1;ratioP1;P2;durP2;ratioP2
32106;SDS011;18622;51.998;10.440;2023-04-30T06:00:38;20.40;;;4.80;;
32106;SDS011;18622;51.998;10.440;2023-04-30T06:03:05;24.80;;;5.33;;
32106;SDS011;18622;51.998;10.440;2023-04-30T06:05:33;19.03;;;5.33;;
32106;SDS011;18622;51.998;10.440;2023-04-30T06:08:01;30.83;;;3.60;;
32106;SDS011;18622;51.998;10.440;2023-04-30T06:10:29;23.40;;;4.20;;
32106;SDS011;18622;51.998;10.440;2023-04-30T06:12:57;26.87;;;4.10;;
32106;SDS011;18622;51.998;10.440;2023-04-30T06:17:53;21.07;;;4.47;;
32106;SDS011;18622;51.998;10.440;2023-04-30T06:20:21;20.27;;;4.57;;
32106;SDS011;18622;51.998;10.440;2023-04-30T06:22:49;19.40;;;3.93;;
32106;SDS011;18622;51.998;10.440;2023-04-30T06:25:17;19.10;;;3.53;;
32106;SDS011;18622;51.998;10.440;2023-04-30T06:27:47;20.57;;;4.35;;
32106;SDS011;18622;51.998;10.440;2023-04-30T06:30:16;17.17;;;3.35;;
32106;SDS011;18622;51.998;10.440;2023-04-30T06:32:44;12.67;;;3.27;;
32106;SDS011;18622;51.998;10.440;2023-04-30T06:35:12;11.13;;;3.53;;
32106;SDS011;18622;51.998;10.440;2023-04-30T06:37:40;16.33;;;4.20;;
32106;SDS011;18622;51.998;10.440;2023-04-30T06:40:08;19.90;;;3.53;;
32106;SDS011;18622;51.998;10.440;2023-04-30T06:42:36;12.17;;;2.60;;
32106;SDS011;18622;51.998;10.440;2023-04-30T06:45:04;15.70;;;3.27;;
32106;SDS011;18622;51.998;10.440;2023-04-30T06:47:32;14.30;;;2.70;;
32106;SDS011;18622;51.998;10.440;2023-04-30T06:50:02;13.72;;;2.92;;
32106;SDS011;18622;51.998;10.440;2023-04-30T06:52:31;17.27;;;3.75;;
32106;SDS011;18622;51.998;10.440;2023-04-30T06:54:58;12.53;;;3.37;;
32106;SDS011;18622;51.998;10.440;2023-04-30T06:57:26;11.57;;;3.67;;
32106;SDS011;18622;51.998;10.440;2023-04-30T06:59:54;19.77;;;4.10;;
32106;SDS011;18622;51.998;10.440;2023-04-30T07:02:22;12.00;;;2.60;;
32106;SDS011;18622;51.998;10.440;2023-04-30T07:04:50;11.10;;;3.43;;
32106;SDS011;18622;51.998;10.440;2023-04-30T07:07:18;14.75;;;2.65;;
32106;SDS011;18622;51.998;10.440;2023-04-30T07:09:46;12.10;;;2.73;;
32106;SDS011;18622;51.998;10.440;2023-04-30T07:12:14;9.67;;;2.70;;
32106;SDS011;18622;51.998;10.440;2023-04-30T07:14:42;13.13;;;3.17;;
32106;SDS011;18622;51.998;10.440;2023-04-30T07:17:10;8.20;;;3.00;;
32106;SDS011;18622;51.998;10.440;2023-04-30T07:19:37;12.63;;;3.00;;
32106;SDS011;18622;51.998;10.440;2023-04-30T07:22:05;16.87;;;2.70;;
32106;SDS011;18622;51.998;10.440;2023-04-30T07:24:33;10.77;;;2.97;;
32106;SDS011;18622;51.998;10.440;2023-04-30T07:27:01;11.13;;;2.60;;
32106;SDS011;18622;51.998;10.440;2023-04-30T07:29:31;10.50;;;3.00;;
32106;SDS011;18622;51.998;10.440;2023-04-30T07:31:59;11.78;;;2.95;;
32106;SDS011;18622;51.998;10.440;2023-04-30T07:34:27;15.13;;;3.27;;
32106;SDS011;18622;51.998;10.440;2023-04-30T07:36:55;15.33;;;3.47;;
32106;SDS011;18622;51.998;10.440;2023-04-30T07:39:23;12.60;;;2.67;;
32106;SDS011;18622;51.998;10.440;2023-04-30T07:41:51;8.37;;;2.50;;
32106;SDS011;18622;51.998;10.440;2023-04-30T07:44:19;13.93;;;3.03;;
32106;SDS011;18622;51.998;10.440;2023-04-30T07:46:46;8.43;;;2.37;;
32106;SDS011;18622;51.998;10.440;2023-04-30T07:49:14;15.10;;;3.20;;
32106;SDS011;18622;51.998;10.440;2023-04-30T07:51:42;12.63;;;2.60;;
32106;SDS011;18622;51.998;10.440;2023-04-30T07:54:10;10.37;;;2.90;;
32106;SDS011;18622;51.998;10.440;2023-04-30T07:56:38;8.83;;;2.43;;
32106;SDS011;18622;51.998;10.440;2023-04-30T07:59:06;14.68;;;2.37;;
32106;SDS011;18622;51.998;10.440;2023-04-30T08:01:34;10.33;;;2.33;;
32106;SDS011;18622;51.998;10.440;2023-04-30T08:04:02;16.97;;;3.23;;
32106;SDS011;18622;51.998;10.440;2023-04-30T08:06:32;9.30;;;3.05;;
32106;SDS011;18622;51.998;10.440;2023-04-30T08:08:59;8.40;;;2.60;;
32106;SDS011;18622;51.998;10.440;2023-04-30T08:11:28;7.55;;;2.30;;
32106;SDS011;18622;51.998;10.440;2023-04-30T08:13:56;10.87;;;2.80;;
32106;SDS011;18622;51.998;10.440;2023-04-30T08:16:24;10.17;;;3.13;;
32106;SDS011;18622;51.998;10.440;2023-04-30T08:18:51;8.47;;;2.77;;
32106;SDS011;18622;51.998;10.440;2023-04-30T08:21:19;13.53;;;2.87;;
32106;SDS011;18622;51.998;10.440;2023-04-30T08:23:47;14.07;;;3.20;;
32106;SDS011;18622;51.998;10.440;2023-04-30T08:26:15;11.93;;;3.07;;
32106;SDS011;18622;51.998;10.440;2023-04-30T08:28:43;6.83;;;2.70;;
32106;SDS011;18622;51.998;10.440;2023-04-30T08:31:11;13.27;;;2.93;;
32106;SDS011;18622;51.998;10.440;2023-04-30T08:33:39;14.80;;;2.60;;
32106;SDS011;18622;51.998;10.440;2023-04-30T08:36:07;11.53;;;3.13;;
32106;SDS011;18622;51.998;10.440;2023-04-30T08:38:35;11.03;;;2.90;;
32106;SDS011;18622;51.998;10.440;2023-04-30T08:43:36;13.43;;;3.30;;
32106;SDS011;18622;51.998;10.440;2023-04-30T08:46:04;13.17;;;2.90;;
32106;SDS011;18622;51.998;10.440;2023-04-30T08:48:32;10.53;;;2.60;;
32106;SDS011;18622;51.998;10.440;2023-04-30T08:51:01;8.85;;;2.60;;
32106;SDS011;18622;51.998;10.440;2023-04-30T08:53:30;12.43;;;2.58;;
32106;SDS011;18622;51.998;10.440;2023-04-30T08:55:59;8.87;;;2.17;;
32106;SDS011;18622;51.998;10.440;2023-04-30T08:58:28;7.42;;;2.50;;
32106;SDS011;18622;51.998;10.440;2023-04-30T09:00:57;11.73;;;2.93;;
32106;SDS011;18622;51.998;10.440;2023-04-30T09:03:26;8.48;;;2.58;;
32106;SDS011;18622;51.998;10.440;2023-04-30T09:05:54;12.17;;;3.20;;
32106;SDS011;18622;51.998;10.440;2023-04-30T09:08:40;7.57;;;2.40;;
32106;SDS011;18622;51.998;10.440;2023-04-30T09:11:28;9.50;;;2.83;;
32106;SDS011;18622;51.998;10.440;2023-04-30T09:13:57;7.73;;;2.60;;
32106;SDS011;18622;51.998;10.440;2023-04-30T09:16:27;7.90;;;2.70;;
32106;SDS011;18622;51.998;10.440;2023-04-30T09:18:57;8.28;;;2.80;;
32106;SDS011;18622;51.998;10.440;2023-04-30T09:21:32;9.93;;;3.25;;
32106;SDS011;18622;51.998;10.440;2023-04-30T09:24:06;8.93;;;2.63;;
32106;SDS011;18622;51.998;10.440;2023-04-30T09:26:32;10.10;;;2.93;;
32106;SDS011;18622;51.998;10.440;2023-04-30T09:29:04;7.90;;;2.62;;
32106;SDS011;18622;51.998;10.440;2023-04-30T09:31:36;9.50;;;3.30;;
32106;SDS011;18622;51.998;10.440;2023-04-30T09:34:04;13.83;;;2.98;;
32106;SDS011;18622;51.998;10.440;2023-04-30T09:36:33;11.93;;;3.60;;
32106;SDS011;18622;51.998;10.440;2023-04-30T09:39:10;10.00;;;3.25;;
32106;SDS011;18622;51.998;10.440;2023-04-30T09:41:43;7.20;;;2.63;;
32106;SDS011;18622;51.998;10.440;2023-04-30T09:44:26;7.47;;;3.10;;
32106;SDS011;18622;51.998;10.440;2023-04-30T09:46:56;9.10;;;2.87;;
32106;SDS011;18622;51.998;10.440;2023-04-30T09:49:25;12.03;;;2.70;;
32106;SDS011;18622;51.998;10.440;2023-04-30T09:51:53;7.58;;;2.65;;
32106;SDS011;18622;51.998;10.440;2023-04-30T09:54:28;6.05;;;2.40;;
32106;SDS011;18622;51.998;10.440;2023-04-30T09:56:53;9.13;;;2.87;;
32106;SDS011;18622;51.998;10.440;2023-04-30T09:59:25;10.50;;;2.60;;
32106;SDS011;18622;51.998;10.440;2023-04-30T10:02:01;9.17;;;2.53;;
32106;SDS011;18622;51.998;10.440;2023-04-30T10:04:37;14.30;;;3.02;;
32106;SDS011;18622;51.998;10.440;2023-04-30T10:07:10;11.23;;;2.57;;
32106;SDS011;18622;51.998;10.440;2023-04-30T10:10:23;9.30;;;2.73;;
32106;SDS011;18622;51.998;10.440;2023-04-30T10:12:19;8.77;;;3.00;;
32106;SDS011;18622;51.998;10.440;2023-04-30T10:14:51;8.63;;;2.90;;
32106;SDS011;18622;51.998;10.440;2023-04-30T10:17:18;8.63;;;3.15;;
32106;SDS011;18622;51.998;10.440;2023-04-30T10:19:48;7.93;;;3.20;;
32106;SDS011;18622;51.998;10.440;2023-04-30T10:22:18;10.70;;;3.37;;
32106;SDS011;18622;51.998;10.440;2023-04-30T10:24:46;9.38;;;3.27;;
32106;SDS011;18622;51.998;10.440;2023-04-30T10:27:14;11.20;;;3.47;;
32106;SDS011;18622;51.998;10.440;2023-04-30T10:29:43;12.23;;;3.50;;
32106;SDS011;18622;51.998;10.440;2023-04-30T10:32:11;7.12;;;2.90;;
32106;SDS011;18622;51.998;10.440;2023-04-30T10:34:49;8.05;;;2.95;;
32106;SDS011;18622;51.998;10.440;2023-04-30T10:37:21;7.90;;;2.60;;
32106;SDS011;18622;51.998;10.440;2023-04-30T10:39:59;6.77;;;3.00;;
32106;SDS011;18622;51.998;10.440;2023-04-30T10:42:29;8.35;;;3.02;;
32106;SDS011;18622;51.998;10.440;2023-04-30T10:44:57;5.87;;;2.37;;
32106;SDS011;18622;51.998;10.440;2023-04-30T10:47:27;7.58;;;2.98;;
32106;SDS011;18622;51.998;10.440;2023-04-30T10:50:07;9.28;;;2.75;;
32106;SDS011;18622;51.998;10.440;2023-04-30T10:55:10;4.17;;;2.50;;
32106;SDS011;18622;51.998;10.440;2023-04-30T10:57:40;7.00;;;2.50;;
32106;SDS011;18622;51.998;10.440;2023-04-30T11:02:42;7.10;;;2.60;;
32106;SDS011;18622;51.998;10.440;2023-04-30T11:05:12;7.65;;;2.52;;
32106;SDS011;18622;51.998;10.440;2023-04-30T11:07:49;8.65;;;3.20;;
32106;SDS011;18622;51.998;10.440;2023-04-30T11:10:24;9.70;;;3.30;;
32106;SDS011;18622;51.998;10.440;2023-04-30T11:12:54;10.00;;;3.05;;
32106;SDS011;18622;51.998;10.440;2023-04-30T11:15:25;10.93;;;3.40;;
32106;SDS011;18622;51.998;10.440;2023-04-30T11:17:55;6.70;;;3.05;;
32106;SDS011;18622;51.998;10.440;2023-04-30T11:20:24;8.58;;;2.98;;
32106;SDS011;18622;51.998;10.440;2023-04-30T11:23:11;10.27;;;2.90;;
32106;SDS011;18622;51.998;10.440;2023-04-30T11:25:41;10.30;;;3.10;;
32106;SDS011;18622;51.998;10.440;2023-04-30T11:28:18;7.83;;;3.17;;
32106;SDS011;18622;51.998;10.440;2023-04-30T11:33:21;10.08;;;4.08;;
32106;SDS011;18622;51.998;10.440;2023-04-30T11:38:30;7.47;;;3.40;;
32106;SDS011;18622;51.998;10.440;2023-04-30T11:41:02;6.40;;;3.40;;
32106;SDS011;18622;51.998;10.440;2023-04-30T11:43:31;8.78;;;2.85;;
32106;SDS011;18622;51.998;10.440;2023-04-30T11:46:06;11.38;;;2.90;;
32106;SDS011;18622;51.998;10.440;2023-04-30T11:48:44;7.80;;;3.20;;
32106;SDS011;18622;51.998;10.440;2023-04-30T11:51:16;9.53;;;2.92;;
32106;SDS011;18622;51.998;10.440;2023-04-30T11:53:45;8.45;;;3.22;;
32106;SDS011;18622;51.998;10.440;2023-04-30T11:56:18;8.35;;;3.35;;
32106;SDS011;18622;51.998;10.440;2023-04-30T11:58:47;11.30;;;3.30;;
32106;SDS011;18622;51.998;10.440;2023-04-30T12:01:15;7.60;;;3.03;;
32106;SDS011;18622;51.998;10.440;2023-04-30T12:03:45;6.57;;;3.03;;
32106;SDS011;18622;51.998;10.440;2023-04-30T12:06:21;9.78;;;3.37;;
32106;SDS011;18622;51.998;10.440;2023-04-30T12:08:53;6.27;;;2.97;;
32106;SDS011;18622;51.998;10.440;2023-04-30T12:11:23;7.40;;;3.00;;
32106;SDS011;18622;51.998;10.440;2023-04-30T12:13:56;8.80;;;3.42;;
32106;SDS011;18622;51.998;10.440;2023-04-30T12:16:26;9.08;;;3.77;;
32106;SDS011;18622;51.998;10.440;2023-04-30T12:18:56;10.68;;;3.47;;
32106;SDS011;18622;51.998;10.440;2023-04-30T12:21:24;9.40;;;3.43;;
32106;SDS011;18622;51.998;10.440;2023-04-30T12:23:53;7.07;;;2.60;;
32106;SDS011;18622;51.998;10.440;2023-04-30T12:26:21;7.77;;;3.97;;
32106;SDS011;18622;51.998;10.440;2023-04-30T12:28:51;8.53;;;3.50;;
32106;SDS011;18622;51.998;10.440;2023-04-30T12:31:19;6.60;;;2.67;;
32106;SDS011;18622;51.998;10.440;2023-04-30T12:33:56;5.93;;;2.53;;
32106;SDS011;18622;51.998;10.440;2023-04-30T12:36:19;7.37;;;2.58;;
32106;SDS011;18622;51.998;10.440;2023-04-30T12:38:47;6.10;;;2.67;;
32106;SDS011;18622;51.998;10.440;2023-04-30T12:41:15;7.40;;;3.17;;
32106;SDS011;18622;51.998;10.440;2023-04-30T12:43:44;10.25;;;3.22;;
32106;SDS011;18622;51.998;10.440;2023-04-30T12:46:18;7.42;;;2.85;;
32106;SDS011;18622;51.998;10.440;2023-04-30T12:48:44;5.30;;;2.67;;
32106;SDS011;18622;51.998;10.440;2023-04-30T12:51:17;12.83;;;4.93;;
32106;SDS011;18622;51.998;10.440;2023-04-30T12:53:45;10.88;;;2.50;;
32106;SDS011;18622;51.998;10.440;2023-04-30T12:56:14;8.63;;;3.02;;
32106;SDS011;18622;51.998;10.440;2023-04-30T12:58:44;5.53;;;2.33;;
32106;SDS011;18622;51.998;10.440;2023-04-30T13:01:22;6.83;;;2.20;;
32106;SDS011;18622;51.998;10.440;2023-04-30T13:03:49;7.10;;;2.93;;
32106;SDS011;18622;51.998;10.440;2023-04-30T13:06:19;8.83;;;2.83;;
32106;SDS011;18622;51.998;10.440;2023-04-30T13:08:48;9.57;;;2.70;;
32106;SDS011;18622;51.998;10.440;2023-04-30T13:11:16;7.17;;;2.80;;
32106;SDS011;18622;51.998;10.440;2023-04-30T13:13:44;8.50;;;2.50;;
32106;SDS011;18622;51.998;10.440;2023-04-30T13:16:12;9.23;;;3.13;;
32106;SDS011;18622;51.998;10.440;2023-04-30T13:18:40;5.60;;;2.37;;
32106;SDS011;18622;51.998;10.440;2023-04-30T13:21:08;8.73;;;2.67;;
32106;SDS011;18622;51.998;10.440;2023-04-30T13:23:36;8.90;;;2.40;;
32106;SDS011;18622;51.998;10.440;2023-04-30T13:26:04;9.10;;;2.67;;
32106;SDS011;18622;51.998;10.440;2023-04-30T13:28:32;9.60;;;2.23;;
32106;SDS011;18622;51.998;10.440;2023-04-30T13:30:59;7.20;;;3.00;;
32106;SDS011;18622;51.998;10.440;2023-04-30T13:33:27;10.27;;;2.67;;
32106;SDS011;18622;51.998;10.440;2023-04-30T13:35:55;6.63;;;2.37;;
32106;SDS011;18622;51.998;10.440;2023-04-30T13:38:23;8.27;;;2.63;;
32106;SDS011;18622;51.998;10.440;2023-04-30T13:40:51;8.13;;;2.20;;
32106;SDS011;18622;51.998;10.440;2023-04-30T13:43:18;6.47;;;2.67;;
32106;SDS011;18622;51.998;10.440;2023-04-30T13:45:46;5.43;;;2.57;;
32106;SDS011;18622;51.998;10.440;2023-04-30T13:48:14;5.80;;;2.37;;
32106;SDS011;18622;51.998;10.440;2023-04-30T13:50:42;3.77;;;1.90;;
32106;SDS011;18622;51.998;10.440;2023-04-30T13:53:10;6.33;;;2.30;;
32106;SDS011;18622;51.998;10.440;2023-04-30T13:55:38;8.60;;;2.43;;
32106;SDS011;18622;51.998;10.440;2023-04-30T13:58:06;4.60;;;2.20;;
32106;SDS011;18622;51.998;10.440;2023-04-30T14:00:34;6.53;;;2.30;;
32106;SDS011;18622;51.998;10.440;2023-04-30T14:03:01;5.80;;;2.27;;
32106;SDS011;18622;51.998;10.440;2023-04-30T14:05:29;9.63;;;2.30;;
32106;SDS011;18622;51.998;10.440;2023-04-30T14:07:57;5.87;;;2.10;;
32106;SDS011;18622;51.998;10.440;2023-04-30T14:10:25;8.10;;;2.50;;
32106;SDS011;18622;51.998;10.440;2023-04-30T14:12:53;3.80;;;1.90;;
32106;SDS011;18622;51.998;10.440;2023-04-30T14:15:20;4.63;;;2.30;;
32106;SDS011;18622;51.998;10.440;2023-04-30T14:17:49;8.97;;;2.50;;
32106;SDS011;18622;51.998;10.440;2023-04-30T14:20:17;5.67;;;2.45;;
32106;SDS011;18622;51.998;10.440;2023-04-30T14:22:45;9.50;;;2.13;;
32106;SDS011;18622;51.998;10.440;2023-04-30T14:25:13;4.70;;;2.00;;
32106;SDS011;18622;51.998;10.440;2023-04-30T14:27:41;4.80;;;2.50;;
32106;SDS011;18622;51.998;10.440;2023-04-30T14:30:09;5.13;;;2.13;;
32106;SDS011;18622;51.998;10.440;2023-04-30T14:32:38;10.75;;;3.70;;
32106;SDS011;18622;51.998;10.440;2023-04-30T14:35:06;5.03;;;2.87;;
32106;SDS011;18622;51.998;10.440;2023-04-30T14:37:34;7.22;;;2.42;;
32106;SDS011;18622;51.998;10.440;2023-04-30T14:40:02;4.00;;;1.57;;
32106;SDS011;18622;51.998;10.440;2023-04-30T14:42:32;6.23;;;3.03;;
32106;SDS011;18622;51.998;10.440;2023-04-30T14:45:00;6.57;;;2.07;;
32106;SDS011;18622;51.998;10.440;2023-04-30T14:47:28;4.60;;;2.00;;
32106;SDS011;18622;51.998;10.440;2023-04-30T14:49:56;4.67;;;1.73;;
32106;SDS011;18622;51.998;10.440;2023-04-30T14:54:52;4.35;;;1.75;;
32106;SDS011;18622;51.998;10.440;2023-04-30T14:57:21;7.73;;;1.97;;
32106;SDS011;18622;51.998;10.440;2023-04-30T14:59:48;3.50;;;1.70;;
32106;SDS011;18622;51.998;10.440;2023-04-30T15:04:45;4.83;;;1.62;;
32106;SDS011;18622;51.998;10.440;2023-04-30T15:07:13;2.60;;;1.63;;
32106;SDS011;18622;51.998;10.440;2023-04-30T15:09:41;4.47;;;1.70;;
32106;SDS011;18622;51.998;10.440;2023-04-30T15:12:11;4.83;;;2.50;;
32106;SDS011;18622;51.998;10.440;2023-04-30T15:14:39;4.60;;;1.90;;
32106;SDS011;18622;51.998;10.440;2023-04-30T15:17:06;4.00;;;1.80;;
32106;SDS011;18622;51.998;10.440;2023-04-30T15:19:34;9.93;;;2.60;;
32106;SDS011;18622;51.998;10.440;2023-04-30T15:22:02;4.60;;;2.10;;
32106;SDS011;18622;51.998;10.440;2023-04-30T15:24:30;5.27;;;2.13;;
32106;SDS011;18622;51.998;10.440;2023-04-30T15:26:58;3.23;;;1.50;;
32106;SDS011;18622;51.998;10.440;2023-04-30T15:29:26;3.40;;;2.00;;
32106;SDS011;18622;51.998;10.440;2023-04-30T15:31:54;1.83;;;1.50;;
32106;SDS011;18622;51.998;10.440;2023-04-30T15:34:22;8.53;;;2.00;;
32106;SDS011;18622;51.998;10.440;2023-04-30T15:36:49;5.30;;;2.33;;
32106;SDS011;18622;51.998;10.440;2023-04-30T15:39:17;4.07;;;1.50;;
32106;SDS011;18622;51.998;10.440;2023-04-30T15:41:45;5.05;;;1.98;;
32106;SDS011;18622;51.998;10.440;2023-04-30T15:44:13;4.67;;;2.03;;
32106;SDS011;18622;51.998;10.440;2023-04-30T15:46:41;4.60;;;2.13;;
32106;SDS011;18622;51.998;10.440;2023-04-30T15:49:09;4.87;;;2.20;;
32106;SDS011;18622;51.998;10.440;2023-04-30T15:51:37;5.00;;;2.23;;
32106;SDS011;18622;51.998;10.440;2023-04-30T15:54:04;3.77;;;2.00;;
32106;SDS011;18622;51.998;10.440;2023-04-30T15:56:32;5.43;;;1.90;;
32106;SDS011;18622;51.998;10.440;2023-04-30T15:59:00;6.07;;;2.07;;
32106;SDS011;18622;51.998;10.440;2023-04-30T16:01:28;6.23;;;1.90;;
32106;SDS011;18622;51.998;10.440;2023-04-30T16:03:56;3.70;;;1.90;;
32106;SDS011;18622;51.998;10.440;2023-04-30T16:06:30;3.75;;;1.80;;
32106;SDS011;18622;51.998;10.440;2023-04-30T16:08:56;7.83;;;1.93;;
32106;SDS011;18622;51.998;10.440;2023-04-30T16:11:26;8.80;;;2.13;;
32106;SDS011;18622;51.998;10.440;2023-04-30T16:13:54;4.70;;;2.03;;
32106;SDS011;18622;51.998;10.440;2023-04-30T16:16:22;6.33;;;2.10;;
32106;SDS011;18622;51.998;10.440;2023-04-30T16:18:49;8.30;;;2.30;;
32106;SDS011;18622;51.998;10.440;2023-04-30T16:21:17;5.57;;;2.30;;
32106;SDS011;18622;51.998;10.440;2023-04-30T16:23:46;6.20;;;2.40;;
32106;SDS011;18622;51.998;10.440;2023-04-30T16:26:13;4.70;;;2.70;;
32106;SDS011;18622;51.998;10.440;2023-04-30T16:28:44;4.58;;;2.40;;
32106;SDS011;18622;51.998;10.440;2023-04-30T16:31:12;8.57;;;2.90;;
32106;SDS011;18622;51.998;10.440;2023-04-30T16:33:41;3.90;;;2.33;;
32106;SDS011;18622;51.998;10.440;2023-04-30T16:36:08;5.17;;;2.40;;
32106;SDS011;18622;51.998;10.440;2023-04-30T16:38:36;6.77;;;2.10;;
32106;SDS011;18622;51.998;10.440;2023-04-30T16:41:04;5.37;;;2.07;;
32106;SDS011;18622;51.998;10.440;2023-04-30T16:46:09;8.23;;;2.90;;
32106;SDS011;18622;51.998;10.440;2023-04-30T16:48:37;7.37;;;2.20;;
32106;SDS011;18622;51.998;10.440;2023-04-30T16:51:05;6.27;;;2.50;;
32106;SDS011;18622;51.998;10.440;2023-04-30T16:53:34;6.57;;;2.77;;
32106;SDS011;18622;51.998;10.440;2023-04-30T16:56:02;5.60;;;2.70;;
32106;SDS011;18622;51.998;10.440;2023-04-30T16:58:30;5.00;;;2.27;;
32106;SDS011;18622;51.998;10.440;2023-04-30T17:00:58;6.03;;;2.57;;
32106;SDS011;18622;51.998;10.440;2023-04-30T17:03:25;6.77;;;3.90;;
32106;SDS011;18622;51.998;10.440;2023-04-30T17:05:55;7.33;;;2.73;;
32106;SDS011;18622;51.998;10.440;2023-04-30T17:08:23;4.80;;;2.43;;
32106;SDS011;18622;51.998;10.440;2023-04-30T17:10:51;9.83;;;2.70;;
32106;SDS011;18622;51.998;10.440;2023-04-30T17:13:19;4.70;;;2.60;;
32106;SDS011;18622;51.998;10.440;2023-04-30T17:15:47;4.70;;;2.30;;
32106;SDS011;18622;51.998;10.440;2023-04-30T17:18:14;6.00;;;2.63;;
32106;SDS011;18622;51.998;10.440;2023-04-30T17:20:42;6.60;;;2.43;;
32106;SDS011;18622;51.998;10.440;2023-04-30T17:23:11;6.47;;;2.72;;
32106;SDS011;18622;51.998;10.440;2023-04-30T17:25:39;7.30;;;2.73;;
32106;SDS011;18622;51.998;10.440;2023-04-30T17:28:07;3.22;;;2.20;;
32106;SDS011;18622;51.998;10.440;2023-04-30T17:30:35;6.73;;;2.07;;
32106;SDS011;18622;51.998;10.440;2023-04-30T17:33:03;7.37;;;2.57;;
32106;SDS011;18622;51.998;10.440;2023-04-30T17:35:31;8.35;;;3.92;;
32106;SDS011;18622;51.998;10.440;2023-04-30T17:37:59;12.97;;;6.50;;
32106;SDS011;18622;51.998;10.440;2023-04-30T17:40:27;14.13;;;6.80;;
32106;SDS011;18622;51.998;10.440;2023-04-30T17:42:56;16.60;;;7.03;;
32106;SDS011;18622;51.998;10.440;2023-04-30T17:48:02;15.03;;;6.53;;
32106;SDS011;18622;51.998;10.440;2023-04-30T17:50:30;14.20;;;7.33;;
32106;SDS011;18622;51.998;10.440;2023-04-30T17:52:58;14.43;;;7.17;;
32106;SDS011;18622;51.998;10.440;2023-04-30T17:55:25;9.93;;;4.80;;
32106;SDS011;18622;51.998;10.440;2023-04-30T17:57:53;8.83;;;3.67;;
32106;SDS011;18622;51.998;10.440;2023-04-30T18:00:21;6.10;;;3.83;;
32106;SDS011;18622;51.998;10.440;2023-04-30T18:02:49;9.17;;;3.87;;
32106;SDS011;18622;51.998;10.440;2023-04-30T18:05:17;10.83;;;4.23;;
32106;SDS011;18622;51.998;10.440;2023-04-30T18:07:45;6.00;;;3.07;;
32106;SDS011;18622;51.998;10.440;2023-04-30T18:10:13;8.63;;;3.37;;
32106;SDS011;18622;51.998;10.440;2023-04-30T18:12:41;6.10;;;2.63;;
32106;SDS011;18622;51.998;10.440;2023-04-30T18:15:10;7.72;;;3.35;;
32106;SDS011;18622;51.998;10.440;2023-04-30T18:17:39;12.20;;;4.42;;
32106;SDS011;18622;51.998;10.440;2023-04-30T18:20:08;11.73;;;4.00;;
32106;SDS011;18622;51.998;10.440;2023-04-30T18:22:37;12.50;;;4.17;;
32106;SDS011;18622;51.998;10.440;2023-04-30T18:25:07;5.58;;;2.85;;
32106;SDS011;18622;51.998;10.440;2023-04-30T18:27:35;7.97;;;2.65;;
32106;SDS011;18622;51.998;10.440;2023-04-30T18:30:03;10.67;;;3.97;;
32106;SDS011;18622;51.998;10.440;2023-04-30T18:32:31;7.65;;;3.50;;
32106;SDS011;18622;51.998;10.440;2023-04-30T18:34:59;9.27;;;3.30;;
32106;SDS011;18622;51.998;10.440;2023-04-30T18:37:29;11.20;;;3.12;;
32106;SDS011;18622;51.998;10.440;2023-04-30T18:39:57;6.67;;;2.75;;
32106;SDS011;18622;51.998;10.440;2023-04-30T18:42:25;6.57;;;2.83;;
32106;SDS011;18622;51.998;10.440;2023-04-30T18:44:55;9.68;;;3.58;;
32106;SDS011;18622;51.998;10.440;2023-04-30T18:47:22;12.00;;;4.27;;
32106;SDS011;18622;51.998;10.440;2023-04-30T18:49:50;5.87;;;3.17;;
32106;SDS011;18622;51.998;10.440;2023-04-30T18:52:18;6.53;;;3.70;;
32106;SDS011;18622;51.998;10.440;2023-04-30T18:54:46;11.53;;;3.80;;
32106;SDS011;18622;51.998;10.440;2023-04-30T18:57:14;12.03;;;3.60;;
32106;SDS011;18622;51.998;10.440;2023-04-30T18:59:43;14.35;;;3.50;;
32106;SDS011;18622;51.998;10.440;2023-04-30T19:02:10;13.13;;;3.77;;
32106;SDS011;18622;51.998;10.440;2023-04-30T19:04:39;11.43;;;3.72;;
32106;SDS011;18622;51.998;10.440;2023-04-30T19:07:07;10.33;;;4.20;;
32106;SDS011;18622;51.998;10.440;2023-04-30T19:09:34;14.43;;;4.87;;
32106;SDS011;18622;51.998;10.440;2023-04-30T19:12:02;16.47;;;5.80;;
32106;SDS011;18622;51.998;10.440;2023-04-30T19:14:31;16.95;;;4.65;;
32106;SDS011;18622;51.998;10.440;2023-04-30T19:16:58;18.70;;;6.67;;
32106;SDS011;18622;51.998;10.440;2023-04-30T19:19:26;37.07;;;13.03;;
32106;SDS011;18622;51.998;10.440;2023-04-30T19:21:54;23.43;;;8.40;;
32106;SDS011;18622;51.998;10.440;2023-04-30T19:24:22;19.00;;;6.57;;
32106;SDS011;18622;51.998;10.440;2023-04-30T19:26:50;9.30;;;3.60;;
32106;SDS011;18622;51.998;10.440;2023-04-30T19:29:18;9.83;;;3.50;;
32106;SDS011;18622;51.998;10.440;2023-04-30T19:31:45;9.47;;;3.27;;
32106;SDS011;18622;51.998;10.440;2023-04-30T19:34:13;11.33;;;3.13;;
32106;SDS011;18622;51.998;10.440;2023-04-30T19:36:41;7.90;;;2.90;;
32106;SDS011;18622;51.998;10.440;2023-04-30T19:39:09;7.50;;;3.57;;
32106;SDS011;18622;51.998;10.440;2023-04-30T19:41:37;9.77;;;4.20;;
32106;SDS011;18622;51.998;10.440;2023-04-30T19:44:05;10.07;;;4.07;;
32106;SDS011;18622;51.998;10.440;2023-04-30T19:46:33;12.43;;;5.23;;
32106;SDS011;18622;51.998;10.440;2023-04-30T19:49:01;11.37;;;5.57;;
32106;SDS011;18622;51.998;10.440;2023-04-30T19:51:29;15.00;;;4.67;;
32106;SDS011;18622;51.998;10.440;2023-04-30T19:53:56;13.27;;;4.30;;
32106;SDS011;18622;51.998;10.440;2023-04-30T19:56:24;7.10;;;3.30;;
32106;SDS011;18622;51.998;10.440;2023-04-30T19:58:52;11.73;;;3.47;;
32106;SDS011;18622;51.998;10.440;2023-04-30T20:01:20;8.27;;;3.10;;
32106;SDS011;18622;51.998;10.440;2023-04-30T20:03:48;10.47;;;3.30;;
32106;SDS011;18622;51.998;10.440;2023-04-30T20:06:16;10.28;;;3.98;;
32106;SDS011;18622;51.998;10.440;2023-04-30T20:08:45;9.85;;;3.12;;
32106;SDS011;18622;51.998;10.440;2023-04-30T20:11:13;13.93;;;3.00;;
32106;SDS011;18622;51.998;10.440;2023-04-30T20:13:41;8.07;;;3.27;;
32106;SDS011;18622;51.998;10.440;2023-04-30T20:16:09;10.70;;;4.20;;
32106;SDS011;18622;51.998;10.440;2023-04-30T20:18:37;6.95;;;2.60;;
32106;SDS011;18622;51.998;10.440;2023-04-30T20:21:05;9.87;;;3.00;;
32106;SDS011;18622;51.998;10.440;2023-04-30T20:23:33;18.65;;;3.02;;
32106;SDS011;18622;51.998;10.440;2023-04-30T20:26:02;9.57;;;2.50;;
32106;SDS011;18622;51.998;10.440;2023-04-30T20:28:30;11.88;;;3.02;;
32106;SDS011;18622;51.998;10.440;2023-04-30T20:30:58;15.67;;;3.57;;
32106;SDS011;18622;51.998;10.440;2023-04-30T20:33:26;9.03;;;2.97;;
32106;SDS011;18622;51.998;10.440;2023-04-30T20:35:54;12.17;;;2.93;;
32106;SDS011;18622;51.998;10.440;2023-04-30T20:38:22;6.85;;;2.80;;
32106;SDS011;18622;51.998;10.440;2023-04-30T20:40:51;7.23;;;3.07;;
32106;SDS011;18622;51.998;10.440;2023-04-30T20:43:18;4.90;;;2.50;;
32106;SDS011;18622;51.998;10.440;2023-04-30T20:45:46;7.37;;;2.63;;
32106;SDS011;18622;51.998;10.440;2023-04-30T20:48:14;11.47;;;2.70;;
32106;SDS011;18622;51.998;10.440;2023-04-30T20:50:42;8.27;;;2.73;;
32106;SDS011;18622;51.998;10.440;2023-04-30T20:53:10;9.28;;;2.70;;
32106;SDS011;18622;51.998;10.440;2023-04-30T20:55:38;8.53;;;3.30;;
32106;SDS011;18622;51.998;10.440;2023-04-30T20:58:06;10.03;;;3.27;;
